createdAt,value
2022-09-23T00:02:27.525Z,9.72
2022-09-23T00:04:59.011Z,9.51
2022-09-23T00:07:28.100Z,9.42
2022-09-23T00:09:57.050Z,9.51
2022-09-23T00:12:26.360Z,9.43
2022-09-23T00:14:54.296Z,9.53
2022-09-23T00:17:26.251Z,9.41
2022-09-23T00:19:55.574Z,9.32
2022-09-23T00:22:23.135Z,9.47
2022-09-23T00:24:50.281Z,9.40
2022-09-23T00:27:34.256Z,9.51
2022-09-23T00:30:07.157Z,9.27
2022-09-23T00:32:36.636Z,9.31
2022-09-23T00:35:36.503Z,9.20
2022-09-23T00:38:28.394Z,9.18
2022-09-23T00:41:06.820Z,9.36
2022-09-23T00:43:40.766Z,9.28
2022-09-23T00:46:13.995Z,9.09
2022-09-23T00:48:42.790Z,9.16
2022-09-23T00:51:18.957Z,9.05
2022-09-23T00:53:51.560Z,9.28
2022-09-23T00:56:24.974Z,9.13
2022-09-23T00:59:04.586Z,9.09
2022-09-23T01:01:37.670Z,9.03
2022-09-23T01:04:13.523Z,8.98
2022-09-23T01:06:53.424Z,9.15
2022-09-23T01:09:26.874Z,9.14
2022-09-23T01:12:27.877Z,9.11
2022-09-23T01:14:57.529Z,9.09
2022-09-23T01:17:40.157Z,9.04
2022-09-23T01:20:25.897Z,9.05
2022-09-23T01:23:17.752Z,9.01
2022-09-23T01:26:09.962Z,8.81
2022-09-23T01:29:05.060Z,8.95
2022-09-23T01:32:10.348Z,8.71
2022-09-23T01:35:20.272Z,8.74
2022-09-23T01:38:07.459Z,8.79
2022-09-23T01:40:43.553Z,8.75
2022-09-23T01:43:32.634Z,8.62
2022-09-23T01:46:07.383Z,8.73
2022-09-23T01:48:41.065Z,8.66
2022-09-23T01:51:35.727Z,8.64
2022-09-23T01:54:38.943Z,8.80
2022-09-23T01:57:46.848Z,8.76
2022-09-23T02:03:14.694Z,8.79
2022-09-23T02:09:33.330Z,8.68
2022-09-23T02:12:06.013Z,8.55
2022-09-23T02:14:48.165Z,8.69
2022-09-23T02:17:18.805Z,8.57
2022-09-23T02:19:48.733Z,8.53
2022-09-23T02:22:18.931Z,8.52
2022-09-23T02:24:46.108Z,8.73
2022-09-23T02:27:36.870Z,8.52
2022-09-23T02:30:11.736Z,8.71
2022-09-23T02:32:51.546Z,8.47
2022-09-23T02:35:34.154Z,8.70
2022-09-23T02:38:09.910Z,8.68
2022-09-23T02:40:41.279Z,8.49
2022-09-23T02:43:13.040Z,8.47
2022-09-23T02:45:41.715Z,8.44
2022-09-23T02:48:14.939Z,8.44
2022-09-23T02:50:42.221Z,8.41
2022-09-23T02:53:09.603Z,8.41
2022-09-23T02:55:36.781Z,8.40
2022-09-23T02:58:04.084Z,8.46
2022-09-23T03:00:50.302Z,8.62
2022-09-23T03:03:30.192Z,8.61
2022-09-23T03:05:58.461Z,8.47
2022-09-23T03:08:30.630Z,8.61
2022-09-23T03:11:04.485Z,8.59
2022-09-23T03:13:38.771Z,8.59
2022-09-23T03:16:15.006Z,8.57
2022-09-23T03:18:43.693Z,8.57
2022-09-23T03:21:49.574Z,8.34
2022-09-23T03:24:16.998Z,8.34
2022-09-23T03:26:45.754Z,8.41
2022-09-23T03:29:12.842Z,8.42
2022-09-23T03:31:40.399Z,8.42
2022-09-23T03:34:29.769Z,8.40
2022-09-23T03:37:21.123Z,8.44
2022-09-23T03:39:59.916Z,8.43
2022-09-23T03:42:30.243Z,8.17
2022-09-23T03:44:57.636Z,8.30
2022-09-23T03:47:28.033Z,8.19
2022-09-23T03:49:57.130Z,8.12
2022-09-23T03:52:24.842Z,8.11
2022-09-23T03:54:53.786Z,8.25
2022-09-23T03:57:23.898Z,8.29
2022-09-23T03:59:53.401Z,8.34
2022-09-23T04:02:20.971Z,8.16
2022-09-23T04:04:48.467Z,8.04
2022-09-23T04:07:15.897Z,8.22
2022-09-23T04:09:42.913Z,8.27
2022-09-23T04:12:13.375Z,8.22
2022-09-23T04:14:40.596Z,8.25
2022-09-23T04:17:07.728Z,8.22
2022-09-23T04:29:06.569Z,8.05
2022-09-23T04:31:34.206Z,8.11
2022-09-23T04:34:07.050Z,8.10
2022-09-23T04:36:37.992Z,8.10
2022-09-23T04:39:05.068Z,8.01
2022-09-23T04:41:32.221Z,7.85
2022-09-23T04:43:59.336Z,7.86
2022-09-23T04:46:26.522Z,7.89
2022-09-23T04:48:53.688Z,7.85
2022-09-23T04:51:21.890Z,7.86
2022-09-23T04:53:49.749Z,7.85
2022-09-23T04:56:19.054Z,7.82
2022-09-23T04:58:47.076Z,7.75
2022-09-23T05:01:17.260Z,7.80
2022-09-23T05:03:45.638Z,7.81
2022-09-23T05:06:16.847Z,7.74
2022-09-23T05:08:50.450Z,7.76
2022-09-23T05:11:19.025Z,7.74
2022-09-23T05:13:50.678Z,7.74
2022-09-23T05:16:18.173Z,7.74
2022-09-23T05:18:45.757Z,7.75
2022-09-23T05:21:17.258Z,7.92
2022-09-23T05:23:48.059Z,7.91
2022-09-23T05:26:16.629Z,7.91
2022-09-23T05:28:46.177Z,7.76
2022-09-23T05:31:21.048Z,7.72
2022-09-23T05:33:54.092Z,7.72
2022-09-23T05:36:24.428Z,7.89
2022-09-23T05:38:51.821Z,7.76
2022-09-23T05:41:29.949Z,7.90
2022-09-23T05:44:11.287Z,7.71
2022-09-23T05:46:56.953Z,7.83
2022-09-23T05:58:29.906Z,7.75
2022-09-23T06:00:59.669Z,7.80
2022-09-23T06:03:26.927Z,7.82
2022-09-23T06:05:56.446Z,8.06
2022-09-23T06:08:27.564Z,7.90
2022-09-23T06:10:54.986Z,7.92
2022-09-23T06:13:22.131Z,7.96
2022-09-23T06:15:49.347Z,7.99
2022-09-23T06:18:19.457Z,8.04
2022-09-23T06:20:49.555Z,8.05
2022-09-23T06:23:16.678Z,8.07
2022-09-23T06:25:43.940Z,8.11
2022-09-23T06:28:12.652Z,8.13
2022-09-23T06:30:42.847Z,8.19
2022-09-23T06:33:10.337Z,8.18
2022-09-23T06:35:37.474Z,8.24
2022-09-23T06:38:05.124Z,8.27
2022-09-23T06:40:32.808Z,8.32
2022-09-23T06:43:00.710Z,8.30
2022-09-23T06:45:30.893Z,8.40
2022-09-23T06:47:59.921Z,8.38
2022-09-23T06:50:27.661Z,8.42
2022-09-23T06:53:01.170Z,8.46
2022-09-23T06:55:28.287Z,8.43
2022-09-23T06:57:57.947Z,8.51
2022-09-23T07:00:28.965Z,8.52
2022-09-23T07:02:58.349Z,8.59
2022-09-23T07:05:25.475Z,8.62
2022-09-23T07:10:36.567Z,8.87
2022-09-23T07:13:06.436Z,8.89
2022-09-23T07:15:36.637Z,8.97
2022-09-23T07:18:06.392Z,8.98
2022-09-23T07:20:44.332Z,8.99
2022-09-23T07:23:13.755Z,9.11
2022-09-23T07:25:43.854Z,8.97
2022-09-23T07:28:12.569Z,9.08
2022-09-23T07:30:51.308Z,9.08
2022-09-23T07:33:31.637Z,9.14
2022-09-23T07:40:40.039Z,9.37
2022-09-23T07:43:10.033Z,9.26
2022-09-23T07:45:39.059Z,9.38
2022-09-23T07:48:06.286Z,9.43
2022-09-23T07:50:33.780Z,9.66
2022-09-23T07:53:03.262Z,9.72
2022-09-23T07:55:30.478Z,9.60
2022-09-23T07:58:01.587Z,9.68
2022-09-23T08:00:33.945Z,9.79
2022-09-23T08:03:01.044Z,9.81
2022-09-23T08:05:31.303Z,9.91
2022-09-23T08:08:01.343Z,9.98
2022-09-23T08:43:35.449Z,11.33
2022-09-23T08:46:10.300Z,11.49
2022-09-23T08:48:44.778Z,11.81
2022-09-23T08:51:14.745Z,11.77
2022-09-23T08:53:43.843Z,12.07
2022-09-23T08:59:20.463Z,12.36
2022-09-23T09:01:53.295Z,12.36
2022-09-23T09:04:38.149Z,12.63
2022-09-23T09:10:40.609Z,12.91
2022-09-23T09:13:22.794Z,12.94
2022-09-23T09:16:59.502Z,13.20
2022-09-23T09:19:52.425Z,13.33
2022-09-23T09:22:37.918Z,13.36
2022-09-23T09:25:42.681Z,13.63
2022-09-23T09:28:24.862Z,13.80
2022-09-23T09:30:57.735Z,13.99
2022-09-23T09:33:39.615Z,14.07
2022-09-23T09:36:09.256Z,14.26
2022-09-23T09:38:36.907Z,14.38
2022-09-23T09:41:17.214Z,14.53
2022-09-23T09:43:45.717Z,14.64
2022-09-23T09:46:37.071Z,14.84
2022-09-23T09:49:29.144Z,14.95
2022-09-23T09:52:20.779Z,15.09
2022-09-23T09:54:49.772Z,15.12
2022-09-23T09:57:35.173Z,15.35
2022-09-23T10:00:25.957Z,15.53
2022-09-23T10:03:02.834Z,15.60
2022-09-23T10:06:01.547Z,15.71
2022-09-23T10:09:04.061Z,15.76
2022-09-23T10:12:17.125Z,15.94
2022-09-23T10:21:40.043Z,16.49
2022-09-23T10:24:08.935Z,16.52
2022-09-23T10:29:50.743Z,16.54
2022-09-23T10:33:21.169Z,17.11
2022-09-23T10:37:13.118Z,17.37
2022-09-23T10:39:53.034Z,17.61
2022-09-23T10:42:58.786Z,17.83
2022-09-23T10:53:29.822Z,18.02
2022-09-23T10:56:10.739Z,18.00
2022-09-23T10:58:55.660Z,18.08
2022-09-23T11:51:14.701Z,20.09
2022-09-23T13:24:26.783Z,20.07
2022-09-23T13:30:11.078Z,20.08
2022-09-23T13:33:14.565Z,20.04
2022-09-23T13:42:30.289Z,19.98
2022-09-23T13:45:01.927Z,19.90
2022-09-23T13:47:34.193Z,19.89
2022-09-23T13:53:03.058Z,19.92
2022-09-23T13:55:31.540Z,19.80
2022-09-23T14:08:14.476Z,19.33
2022-09-23T14:10:50.212Z,19.37
2022-09-23T14:13:39.102Z,19.30
2022-09-23T14:16:09.065Z,19.29
2022-09-23T14:19:17.390Z,19.14
2022-09-23T14:25:04.044Z,19.03
2022-09-23T14:35:17.474Z,18.83
2022-09-23T14:38:29.968Z,18.71
2022-09-23T14:41:24.479Z,18.59
2022-09-23T14:44:14.438Z,18.55
2022-09-23T15:24:42.064Z,17.51
2022-09-23T15:27:12.256Z,17.50
2022-09-23T15:29:50.298Z,17.48
2022-09-23T15:32:18.542Z,17.44
2022-09-23T15:35:27.442Z,17.44
2022-09-23T15:37:59.009Z,17.31
2022-09-23T16:05:19.286Z,16.40
2022-09-23T16:18:36.150Z,16.18
2022-09-23T16:21:06.611Z,16.23
2022-09-23T16:23:34.920Z,16.18
2022-09-23T16:26:03.858Z,16.22
2022-09-23T16:28:30.901Z,16.17
2022-09-23T16:30:59.446Z,16.16
2022-09-23T16:33:30.709Z,16.11
2022-09-23T16:36:02.508Z,16.08
2022-09-23T16:41:59.242Z,15.90
2022-09-23T16:52:15.058Z,15.78
2022-09-23T16:54:43.902Z,15.83
2022-09-23T16:57:15.765Z,15.71
2022-09-23T17:00:34.140Z,15.81
2022-09-23T17:03:45.069Z,15.55
2022-09-23T17:09:26.845Z,15.49
2022-09-23T17:12:16.457Z,15.38
2022-09-23T17:15:39.377Z,15.50
2022-09-23T17:18:19.512Z,15.32
2022-09-23T17:27:31.720Z,15.28
2022-09-23T17:29:59.110Z,15.08
2022-09-23T17:32:26.729Z,15.08
2022-09-23T17:34:54.384Z,15.01
2022-09-23T17:37:21.556Z,14.95
2022-09-23T17:39:48.621Z,14.95
2022-09-23T17:42:15.862Z,14.89
2022-09-23T17:44:42.939Z,14.98
2022-09-23T17:47:10.126Z,14.80
2022-09-23T17:49:37.342Z,14.93
2022-09-23T17:52:05.818Z,14.74
2022-09-23T17:54:32.946Z,14.68
2022-09-23T17:57:01.201Z,14.69
2022-09-23T17:59:28.343Z,14.58
2022-09-23T18:01:55.535Z,14.51
2022-09-23T18:04:28.650Z,14.49
2022-09-23T18:06:55.747Z,14.48
2022-09-23T18:17:06.717Z,14.21
2022-09-23T18:26:32.641Z,14.13
2022-09-23T18:33:37.500Z,14.04
2022-09-23T18:36:07.901Z,13.82
2022-09-23T18:38:36.821Z,13.82
2022-09-23T18:41:04.221Z,13.78
2022-09-23T18:43:41.374Z,13.76
2022-09-23T18:46:15.007Z,13.73
2022-09-23T18:49:01.156Z,13.62
2022-09-23T18:54:14.561Z,13.53
2022-09-23T19:22:55.254Z,12.91
2022-09-23T19:25:23.573Z,12.96
2022-09-23T19:27:50.649Z,12.95
2022-09-23T19:30:29.263Z,12.91
2022-09-23T19:54:06.148Z,12.67
2022-09-23T19:59:52.377Z,12.41
2022-09-23T20:02:38.315Z,12.43
2022-09-23T20:05:20.426Z,12.36
2022-09-23T20:08:00.488Z,12.34
2022-09-23T20:10:30.029Z,12.40
2022-09-23T20:13:02.703Z,12.44
2022-09-23T20:15:31.188Z,12.34
2022-09-23T20:25:23.504Z,12.10
2022-09-23T20:37:41.488Z,12.07
2022-09-23T20:52:37.902Z,11.82
2022-09-23T21:01:58.385Z,11.63
2022-09-23T21:04:27.288Z,11.60
2022-09-23T21:06:56.093Z,11.58
2022-09-23T21:12:51.870Z,11.52
2022-09-23T21:44:51.455Z,11.13
2022-09-23T21:47:26.616Z,11.21
2022-09-23T21:49:54.172Z,11.08
2022-09-23T21:52:26.901Z,11.24
2022-09-23T21:55:00.271Z,11.23
